sensor_id;sensor_type;location;lat;lon;timestamp;P1;durP1;ratioP1;P2;durP2;ratioP2
65370;SDS011;58485;59.934;30.352;2022-07-18T00:00:07;24.02;;;19.42;;
65370;SDS011;58485;59.934;30.352;2022-07-18T00:01:00;25.52;;;19.80;;
65370;SDS011;58485;59.934;30.352;2022-07-18T00:01:52;24.88;;;19.50;;
65370;SDS011;58485;59.934;30.352;2022-07-18T00:02:44;26.60;;;20.58;;
65370;SDS011;58485;59.934;30.352;2022-07-18T00:03:37;24.77;;;20.73;;
65370;SDS011;58485;59.934;30.352;2022-07-18T00:04:28;33.20;;;22.23;;
65370;SDS011;58485;59.934;30.352;2022-07-18T00:05:21;32.80;;;22.45;;
65370;SDS011;58485;59.934;30.352;2022-07-18T00:06:12;31.77;;;22.95;;
65370;SDS011;58485;59.934;30.352;2022-07-18T00:07:04;29.15;;;22.52;;
65370;SDS011;58485;59.934;30.352;2022-07-18T00:07:55;31.25;;;22.23;;
65370;SDS011;58485;59.934;30.352;2022-07-18T00:08:48;26.70;;;22.05;;
65370;SDS011;58485;59.934;30.352;2022-07-18T00:09:40;30.23;;;23.33;;
65370;SDS011;58485;59.934;30.352;2022-07-18T00:10:34;33.00;;;23.10;;
65370;SDS011;58485;59.934;30.352;2022-07-18T00:11:26;31.45;;;22.30;;
65370;SDS011;58485;59.934;30.352;2022-07-18T00:12:18;32.90;;;21.58;;
65370;SDS011;58485;59.934;30.352;2022-07-18T00:13:09;35.55;;;22.30;;
65370;SDS011;58485;59.934;30.352;2022-07-18T00:14:01;28.00;;;21.00;;
65370;SDS011;58485;59.934;30.352;2022-07-18T00:14:53;25.75;;;20.50;;
65370;SDS011;58485;59.934;30.352;2022-07-18T00:15:45;28.55;;;20.58;;
65370;SDS011;58485;59.934;30.352;2022-07-18T00:16:36;28.27;;;20.77;;
65370;SDS011;58485;59.934;30.352;2022-07-18T00:17:28;25.45;;;19.85;;
65370;SDS011;58485;59.934;30.352;2022-07-18T00:18:20;28.90;;;21.27;;
65370;SDS011;58485;59.934;30.352;2022-07-18T00:19:12;27.75;;;20.95;;
65370;SDS011;58485;59.934;30.352;2022-07-18T00:20:05;26.77;;;20.73;;
65370;SDS011;58485;59.934;30.352;2022-07-18T00:21:02;22.73;;;19.38;;
65370;SDS011;58485;59.934;30.352;2022-07-18T00:21:54;27.02;;;20.35;;
65370;SDS011;58485;59.934;30.352;2022-07-18T00:22:46;27.05;;;20.48;;
65370;SDS011;58485;59.934;30.352;2022-07-18T00:23:37;29.08;;;19.60;;
65370;SDS011;58485;59.934;30.352;2022-07-18T00:24:29;23.95;;;19.90;;
65370;SDS011;58485;59.934;30.352;2022-07-18T00:25:22;25.42;;;19.75;;
65370;SDS011;58485;59.934;30.352;2022-07-18T00:26:16;24.10;;;20.73;;
65370;SDS011;58485;59.934;30.352;2022-07-18T00:27:07;29.58;;;20.08;;
65370;SDS011;58485;59.934;30.352;2022-07-18T00:27:59;34.60;;;20.17;;
65370;SDS011;58485;59.934;30.352;2022-07-18T00:28:51;26.17;;;20.08;;
65370;SDS011;58485;59.934;30.352;2022-07-18T00:29:44;26.10;;;20.42;;
65370;SDS011;58485;59.934;30.352;2022-07-18T00:30:35;27.80;;;19.77;;
65370;SDS011;58485;59.934;30.352;2022-07-18T00:31:27;25.42;;;18.95;;
65370;SDS011;58485;59.934;30.352;2022-07-18T00:32:18;23.65;;;19.80;;
65370;SDS011;58485;59.934;30.352;2022-07-18T00:33:11;22.85;;;19.10;;
65370;SDS011;58485;59.934;30.352;2022-07-18T00:34:02;26.73;;;20.15;;
65370;SDS011;58485;59.934;30.352;2022-07-18T00:34:54;27.25;;;20.55;;
65370;SDS011;58485;59.934;30.352;2022-07-18T00:35:46;32.47;;;20.77;;
65370;SDS011;58485;59.934;30.352;2022-07-18T00:36:38;22.40;;;19.48;;
65370;SDS011;58485;59.934;30.352;2022-07-18T00:37:29;24.63;;;20.13;;
65370;SDS011;58485;59.934;30.352;2022-07-18T00:38:22;25.35;;;19.05;;
65370;SDS011;58485;59.934;30.352;2022-07-18T00:39:13;23.42;;;19.10;;
65370;SDS011;58485;59.934;30.352;2022-07-18T00:40:06;34.00;;;20.33;;
65370;SDS011;58485;59.934;30.352;2022-07-18T00:40:58;29.15;;;19.95;;
65370;SDS011;58485;59.934;30.352;2022-07-18T00:41:52;25.45;;;18.98;;
65370;SDS011;58485;59.934;30.352;2022-07-18T00:42:44;25.63;;;20.70;;
65370;SDS011;58485;59.934;30.352;2022-07-18T00:43:36;29.48;;;21.90;;
65370;SDS011;58485;59.934;30.352;2022-07-18T00:44:28;33.90;;;22.35;;
65370;SDS011;58485;59.934;30.352;2022-07-18T00:45:20;33.40;;;22.55;;
65370;SDS011;58485;59.934;30.352;2022-07-18T00:46:11;39.85;;;23.77;;
65370;SDS011;58485;59.934;30.352;2022-07-18T00:47:04;41.42;;;24.70;;
65370;SDS011;58485;59.934;30.352;2022-07-18T00:47:55;32.35;;;24.55;;
65370;SDS011;58485;59.934;30.352;2022-07-18T00:48:47;31.70;;;23.52;;
65370;SDS011;58485;59.934;30.352;2022-07-18T00:49:39;39.47;;;25.48;;
65370;SDS011;58485;59.934;30.352;2022-07-18T00:50:31;34.25;;;26.17;;
65370;SDS011;58485;59.934;30.352;2022-07-18T00:51:22;40.58;;;27.95;;
65370;SDS011;58485;59.934;30.352;2022-07-18T00:52:15;41.92;;;29.42;;
65370;SDS011;58485;59.934;30.352;2022-07-18T00:53:06;61.00;;;31.50;;
65370;SDS011;58485;59.934;30.352;2022-07-18T00:54:01;53.45;;;33.00;;
65370;SDS011;58485;59.934;30.352;2022-07-18T00:54:53;50.97;;;33.00;;
65370;SDS011;58485;59.934;30.352;2022-07-18T00:55:46;55.83;;;35.25;;
65370;SDS011;58485;59.934;30.352;2022-07-18T00:56:37;57.15;;;36.20;;
65370;SDS011;58485;59.934;30.352;2022-07-18T00:57:32;59.80;;;37.03;;
65370;SDS011;58485;59.934;30.352;2022-07-18T00:58:23;58.95;;;35.95;;
65370;SDS011;58485;59.934;30.352;2022-07-18T00:59:16;61.15;;;37.40;;
65370;SDS011;58485;59.934;30.352;2022-07-18T01:00:09;59.47;;;36.03;;
65370;SDS011;58485;59.934;30.352;2022-07-18T01:01:22;55.90;;;35.80;;
65370;SDS011;58485;59.934;30.352;2022-07-18T01:02:32;56.45;;;36.72;;
65370;SDS011;58485;59.934;30.352;2022-07-18T01:03:24;58.92;;;38.53;;
65370;SDS011;58485;59.934;30.352;2022-07-18T01:04:17;69.13;;;36.85;;
65370;SDS011;58485;59.934;30.352;2022-07-18T01:05:10;62.70;;;37.95;;
65370;SDS011;58485;59.934;30.352;2022-07-18T01:06:02;64.97;;;36.95;;
65370;SDS011;58485;59.934;30.352;2022-07-18T01:06:54;62.33;;;37.38;;
65370;SDS011;58485;59.934;30.352;2022-07-18T01:07:45;61.95;;;36.58;;
65370;SDS011;58485;59.934;30.352;2022-07-18T01:08:37;72.18;;;37.53;;
65370;SDS011;58485;59.934;30.352;2022-07-18T01:09:32;70.75;;;37.80;;
65370;SDS011;58485;59.934;30.352;2022-07-18T01:10:25;64.53;;;38.75;;
65370;SDS011;58485;59.934;30.352;2022-07-18T01:11:16;59.45;;;37.67;;
65370;SDS011;58485;59.934;30.352;2022-07-18T01:12:08;66.07;;;37.95;;
65370;SDS011;58485;59.934;30.352;2022-07-18T01:13:02;61.90;;;36.47;;
65370;SDS011;58485;59.934;30.352;2022-07-18T01:13:54;64.03;;;37.55;;
65370;SDS011;58485;59.934;30.352;2022-07-18T01:14:46;64.97;;;36.13;;
65370;SDS011;58485;59.934;30.352;2022-07-18T01:15:38;64.45;;;36.10;;
65370;SDS011;58485;59.934;30.352;2022-07-18T01:16:30;67.35;;;37.85;;
65370;SDS011;58485;59.934;30.352;2022-07-18T01:17:23;63.10;;;36.40;;
65370;SDS011;58485;59.934;30.352;2022-07-18T01:18:14;64.93;;;36.63;;
65370;SDS011;58485;59.934;30.352;2022-07-18T01:19:07;65.80;;;36.30;;
65370;SDS011;58485;59.934;30.352;2022-07-18T01:20:00;58.83;;;36.78;;
65370;SDS011;58485;59.934;30.352;2022-07-18T01:20:54;56.95;;;35.45;;
65370;SDS011;58485;59.934;30.352;2022-07-18T01:21:45;58.35;;;35.28;;
65370;SDS011;58485;59.934;30.352;2022-07-18T01:22:38;60.97;;;33.88;;
65370;SDS011;58485;59.934;30.352;2022-07-18T01:23:29;57.47;;;34.08;;
65370;SDS011;58485;59.934;30.352;2022-07-18T01:24:21;52.53;;;34.00;;
65370;SDS011;58485;59.934;30.352;2022-07-18T01:25:12;56.92;;;33.28;;
65370;SDS011;58485;59.934;30.352;2022-07-18T01:26:07;55.88;;;33.17;;
65370;SDS011;58485;59.934;30.352;2022-07-18T01:26:59;54.85;;;33.40;;
65370;SDS011;58485;59.934;30.352;2022-07-18T01:27:51;52.25;;;32.33;;
65370;SDS011;58485;59.934;30.352;2022-07-18T01:28:43;67.57;;;34.17;;
65370;SDS011;58485;59.934;30.352;2022-07-18T01:29:36;55.03;;;32.95;;
65370;SDS011;58485;59.934;30.352;2022-07-18T01:30:27;53.35;;;32.17;;
65370;SDS011;58485;59.934;30.352;2022-07-18T01:31:20;60.03;;;33.20;;
65370;SDS011;58485;59.934;30.352;2022-07-18T01:32:11;59.13;;;33.25;;
65370;SDS011;58485;59.934;30.352;2022-07-18T01:33:04;52.97;;;33.30;;
65370;SDS011;58485;59.934;30.352;2022-07-18T01:33:55;58.67;;;33.22;;
65370;SDS011;58485;59.934;30.352;2022-07-18T01:34:48;52.75;;;31.80;;
65370;SDS011;58485;59.934;30.352;2022-07-18T01:35:40;60.53;;;33.85;;
65370;SDS011;58485;59.934;30.352;2022-07-18T01:36:34;60.30;;;34.25;;
65370;SDS011;58485;59.934;30.352;2022-07-18T01:37:25;55.15;;;33.53;;
65370;SDS011;58485;59.934;30.352;2022-07-18T01:38:17;59.40;;;34.63;;
65370;SDS011;58485;59.934;30.352;2022-07-18T01:39:09;66.20;;;34.53;;
65370;SDS011;58485;59.934;30.352;2022-07-18T01:40:04;57.30;;;34.25;;
65370;SDS011;58485;59.934;30.352;2022-07-18T01:40:59;62.58;;;34.08;;
65370;SDS011;58485;59.934;30.352;2022-07-18T01:41:54;58.05;;;33.08;;
65370;SDS011;58485;59.934;30.352;2022-07-18T01:42:46;54.53;;;32.05;;
65370;SDS011;58485;59.934;30.352;2022-07-18T01:43:39;55.00;;;31.77;;
65370;SDS011;58485;59.934;30.352;2022-07-18T01:44:32;47.55;;;31.85;;
65370;SDS011;58485;59.934;30.352;2022-07-18T01:45:26;56.92;;;33.65;;
65370;SDS011;58485;59.934;30.352;2022-07-18T01:46:17;61.22;;;37.28;;
65370;SDS011;58485;59.934;30.352;2022-07-18T01:47:11;59.45;;;37.65;;
65370;SDS011;58485;59.934;30.352;2022-07-18T01:48:02;60.38;;;37.90;;
65370;SDS011;58485;59.934;30.352;2022-07-18T01:48:55;64.97;;;36.67;;
65370;SDS011;58485;59.934;30.352;2022-07-18T01:49:46;67.65;;;39.92;;
65370;SDS011;58485;59.934;30.352;2022-07-18T01:50:39;70.50;;;41.63;;
65370;SDS011;58485;59.934;30.352;2022-07-18T01:51:30;68.95;;;41.35;;
65370;SDS011;58485;59.934;30.352;2022-07-18T01:52:24;69.15;;;42.78;;
65370;SDS011;58485;59.934;30.352;2022-07-18T01:53:15;65.28;;;42.42;;
65370;SDS011;58485;59.934;30.352;2022-07-18T01:54:07;63.67;;;41.20;;
65370;SDS011;58485;59.934;30.352;2022-07-18T01:54:58;70.72;;;41.63;;
65370;SDS011;58485;59.934;30.352;2022-07-18T01:55:51;66.28;;;41.13;;
65370;SDS011;58485;59.934;30.352;2022-07-18T01:56:42;64.00;;;41.80;;
65370;SDS011;58485;59.934;30.352;2022-07-18T01:57:35;68.57;;;41.78;;
65370;SDS011;58485;59.934;30.352;2022-07-18T01:58:27;66.65;;;42.90;;
65370;SDS011;58485;59.934;30.352;2022-07-18T01:59:19;70.40;;;43.80;;
65370;SDS011;58485;59.934;30.352;2022-07-18T02:00:10;67.38;;;44.92;;
65370;SDS011;58485;59.934;30.352;2022-07-18T02:01:04;68.50;;;42.67;;
65370;SDS011;58485;59.934;30.352;2022-07-18T02:01:55;65.72;;;43.80;;
65370;SDS011;58485;59.934;30.352;2022-07-18T02:02:47;66.25;;;41.67;;
65370;SDS011;58485;59.934;30.352;2022-07-18T02:03:39;66.47;;;43.15;;
65370;SDS011;58485;59.934;30.352;2022-07-18T02:04:30;69.10;;;41.67;;
65370;SDS011;58485;59.934;30.352;2022-07-18T02:05:40;64.47;;;43.50;;
65370;SDS011;58485;59.934;30.352;2022-07-18T02:06:32;63.30;;;42.58;;
65370;SDS011;58485;59.934;30.352;2022-07-18T02:07:25;72.65;;;46.05;;
65370;SDS011;58485;59.934;30.352;2022-07-18T02:08:17;73.88;;;44.17;;
65370;SDS011;58485;59.934;30.352;2022-07-18T02:09:09;67.75;;;43.05;;
65370;SDS011;58485;59.934;30.352;2022-07-18T02:10:03;69.32;;;43.20;;
65370;SDS011;58485;59.934;30.352;2022-07-18T02:10:58;67.57;;;42.45;;
65370;SDS011;58485;59.934;30.352;2022-07-18T02:11:49;66.15;;;42.60;;
65370;SDS011;58485;59.934;30.352;2022-07-18T02:12:41;72.15;;;41.95;;
65370;SDS011;58485;59.934;30.352;2022-07-18T02:13:52;64.32;;;41.20;;
65370;SDS011;58485;59.934;30.352;2022-07-18T02:14:45;69.82;;;43.17;;
65370;SDS011;58485;59.934;30.352;2022-07-18T02:15:36;64.25;;;40.90;;
65370;SDS011;58485;59.934;30.352;2022-07-18T02:16:28;65.45;;;43.17;;
65370;SDS011;58485;59.934;30.352;2022-07-18T02:17:20;65.38;;;40.90;;
65370;SDS011;58485;59.934;30.352;2022-07-18T02:18:11;73.70;;;45.35;;
65370;SDS011;58485;59.934;30.352;2022-07-18T02:19:03;74.40;;;45.80;;
65370;SDS011;58485;59.934;30.352;2022-07-18T02:19:55;71.97;;;46.78;;
65370;SDS011;58485;59.934;30.352;2022-07-18T02:20:47;75.00;;;46.83;;
65370;SDS011;58485;59.934;30.352;2022-07-18T02:21:38;74.65;;;46.05;;
65370;SDS011;58485;59.934;30.352;2022-07-18T02:22:32;73.15;;;46.28;;
65370;SDS011;58485;59.934;30.352;2022-07-18T02:23:23;66.88;;;45.05;;
65370;SDS011;58485;59.934;30.352;2022-07-18T02:24:15;69.28;;;44.33;;
65370;SDS011;58485;59.934;30.352;2022-07-18T02:25:07;67.97;;;44.13;;
65370;SDS011;58485;59.934;30.352;2022-07-18T02:26:01;67.93;;;44.55;;
65370;SDS011;58485;59.934;30.352;2022-07-18T02:26:53;70.10;;;44.75;;
65370;SDS011;58485;59.934;30.352;2022-07-18T02:27:45;68.15;;;41.97;;
65370;SDS011;58485;59.934;30.352;2022-07-18T02:28:36;74.13;;;42.97;;
65370;SDS011;58485;59.934;30.352;2022-07-18T02:29:29;69.78;;;42.72;;
65370;SDS011;58485;59.934;30.352;2022-07-18T02:30:20;66.20;;;42.67;;
65370;SDS011;58485;59.934;30.352;2022-07-18T02:31:13;68.50;;;42.65;;
65370;SDS011;58485;59.934;30.352;2022-07-18T02:32:04;65.55;;;41.88;;
65370;SDS011;58485;59.934;30.352;2022-07-18T02:32:57;69.78;;;42.05;;
65370;SDS011;58485;59.934;30.352;2022-07-18T02:33:49;73.05;;;40.65;;
65370;SDS011;58485;59.934;30.352;2022-07-18T02:34:40;61.97;;;39.63;;
65370;SDS011;58485;59.934;30.352;2022-07-18T02:35:32;69.38;;;40.50;;
65370;SDS011;58485;59.934;30.352;2022-07-18T02:36:24;62.22;;;40.83;;
65370;SDS011;58485;59.934;30.352;2022-07-18T02:37:16;61.83;;;40.00;;
65370;SDS011;58485;59.934;30.352;2022-07-18T02:38:09;64.78;;;39.78;;
65370;SDS011;58485;59.934;30.352;2022-07-18T02:39:02;63.78;;;39.70;;
65370;SDS011;58485;59.934;30.352;2022-07-18T02:39:54;66.63;;;38.60;;
65370;SDS011;58485;59.934;30.352;2022-07-18T02:40:46;62.10;;;39.50;;
65370;SDS011;58485;59.934;30.352;2022-07-18T02:41:37;60.13;;;37.63;;
65370;SDS011;58485;59.934;30.352;2022-07-18T02:42:30;62.60;;;37.58;;
65370;SDS011;58485;59.934;30.352;2022-07-18T02:43:21;55.08;;;36.38;;
65370;SDS011;58485;59.934;30.352;2022-07-18T02:44:13;60.97;;;36.22;;
65370;SDS011;58485;59.934;30.352;2022-07-18T02:45:05;52.35;;;34.75;;
65370;SDS011;58485;59.934;30.352;2022-07-18T02:45:59;58.67;;;36.42;;
65370;SDS011;58485;59.934;30.352;2022-07-18T02:46:50;61.38;;;36.20;;
65370;SDS011;58485;59.934;30.352;2022-07-18T02:47:42;53.17;;;33.70;;
65370;SDS011;58485;59.934;30.352;2022-07-18T02:48:34;53.80;;;34.08;;
65370;SDS011;58485;59.934;30.352;2022-07-18T02:49:26;47.38;;;32.17;;
65370;SDS011;58485;59.934;30.352;2022-07-18T02:50:17;53.67;;;33.25;;
65370;SDS011;58485;59.934;30.352;2022-07-18T02:51:10;46.28;;;32.67;;
65370;SDS011;58485;59.934;30.352;2022-07-18T02:52:02;49.15;;;30.88;;
65370;SDS011;58485;59.934;30.352;2022-07-18T02:52:57;51.90;;;31.90;;
65370;SDS011;58485;59.934;30.352;2022-07-18T02:53:49;50.55;;;30.77;;
65370;SDS011;58485;59.934;30.352;2022-07-18T02:54:41;47.28;;;30.40;;
65370;SDS011;58485;59.934;30.352;2022-07-18T02:55:33;47.88;;;29.75;;
65370;SDS011;58485;59.934;30.352;2022-07-18T02:56:25;50.38;;;29.42;;
65370;SDS011;58485;59.934;30.352;2022-07-18T02:57:16;45.08;;;29.48;;
65370;SDS011;58485;59.934;30.352;2022-07-18T02:58:09;46.72;;;29.13;;
65370;SDS011;58485;59.934;30.352;2022-07-18T02:59:00;45.92;;;28.45;;
65370;SDS011;58485;59.934;30.352;2022-07-18T02:59:52;40.20;;;27.15;;
65370;SDS011;58485;59.934;30.352;2022-07-18T03:00:43;49.75;;;28.67;;
65370;SDS011;58485;59.934;30.352;2022-07-18T03:01:36;42.25;;;26.08;;
65370;SDS011;58485;59.934;30.352;2022-07-18T03:02:27;40.17;;;26.48;;
65370;SDS011;58485;59.934;30.352;2022-07-18T03:03:19;34.65;;;26.42;;
65370;SDS011;58485;59.934;30.352;2022-07-18T03:04:10;46.03;;;26.13;;
65370;SDS011;58485;59.934;30.352;2022-07-18T03:05:03;35.90;;;24.88;;
65370;SDS011;58485;59.934;30.352;2022-07-18T03:05:55;41.78;;;25.27;;
65370;SDS011;58485;59.934;30.352;2022-07-18T03:06:48;34.45;;;24.77;;
65370;SDS011;58485;59.934;30.352;2022-07-18T03:07:40;44.45;;;27.00;;
65370;SDS011;58485;59.934;30.352;2022-07-18T03:08:32;38.88;;;24.38;;
65370;SDS011;58485;59.934;30.352;2022-07-18T03:09:25;35.25;;;23.58;;
65370;SDS011;58485;59.934;30.352;2022-07-18T03:10:18;41.85;;;25.02;;
65370;SDS011;58485;59.934;30.352;2022-07-18T03:11:09;37.08;;;24.08;;
65370;SDS011;58485;59.934;30.352;2022-07-18T03:12:02;37.60;;;24.55;;
65370;SDS011;58485;59.934;30.352;2022-07-18T03:12:53;37.08;;;23.52;;
65370;SDS011;58485;59.934;30.352;2022-07-18T03:13:46;37.67;;;23.42;;
65370;SDS011;58485;59.934;30.352;2022-07-18T03:14:37;34.50;;;22.67;;
65370;SDS011;58485;59.934;30.352;2022-07-18T03:15:29;35.30;;;22.83;;
65370;SDS011;58485;59.934;30.352;2022-07-18T03:16:20;30.20;;;22.75;;
65370;SDS011;58485;59.934;30.352;2022-07-18T03:17:13;34.35;;;22.90;;
65370;SDS011;58485;59.934;30.352;2022-07-18T03:18:04;31.65;;;22.42;;
65370;SDS011;58485;59.934;30.352;2022-07-18T03:18:57;35.65;;;21.67;;
65370;SDS011;58485;59.934;30.352;2022-07-18T03:19:48;29.15;;;21.85;;
65370;SDS011;58485;59.934;30.352;2022-07-18T03:20:40;34.40;;;22.30;;
65370;SDS011;58485;59.934;30.352;2022-07-18T03:21:31;30.27;;;20.38;;
65370;SDS011;58485;59.934;30.352;2022-07-18T03:22:24;31.88;;;21.60;;
65370;SDS011;58485;59.934;30.352;2022-07-18T03:23:15;31.88;;;19.73;;
65370;SDS011;58485;59.934;30.352;2022-07-18T03:24:07;31.80;;;20.90;;
65370;SDS011;58485;59.934;30.352;2022-07-18T03:25:00;28.98;;;21.23;;
65370;SDS011;58485;59.934;30.352;2022-07-18T03:25:52;25.67;;;18.83;;
65370;SDS011;58485;59.934;30.352;2022-07-18T03:26:43;33.45;;;20.10;;
65370;SDS011;58485;59.934;30.352;2022-07-18T03:27:36;33.65;;;20.30;;
65370;SDS011;58485;59.934;30.352;2022-07-18T03:28:27;32.13;;;19.70;;
65370;SDS011;58485;59.934;30.352;2022-07-18T03:29:20;32.85;;;18.80;;
65370;SDS011;58485;59.934;30.352;2022-07-18T03:30:11;28.90;;;19.45;;
65370;SDS011;58485;59.934;30.352;2022-07-18T03:31:04;28.05;;;18.05;;
65370;SDS011;58485;59.934;30.352;2022-07-18T03:31:56;28.23;;;17.52;;
65370;SDS011;58485;59.934;30.352;2022-07-18T03:32:48;29.55;;;18.33;;
65370;SDS011;58485;59.934;30.352;2022-07-18T03:33:39;29.20;;;18.00;;
65370;SDS011;58485;59.934;30.352;2022-07-18T03:34:32;27.88;;;18.33;;
65370;SDS011;58485;59.934;30.352;2022-07-18T03:35:23;28.98;;;17.30;;
65370;SDS011;58485;59.934;30.352;2022-07-18T03:36:16;22.67;;;17.20;;
65370;SDS011;58485;59.934;30.352;2022-07-18T03:37:08;23.00;;;16.67;;
65370;SDS011;58485;59.934;30.352;2022-07-18T03:37:59;23.27;;;16.15;;
65370;SDS011;58485;59.934;30.352;2022-07-18T03:38:52;20.15;;;15.52;;
65370;SDS011;58485;59.934;30.352;2022-07-18T03:39:43;25.45;;;15.85;;
65370;SDS011;58485;59.934;30.352;2022-07-18T03:40:36;21.33;;;14.82;;
65370;SDS011;58485;59.934;30.352;2022-07-18T03:41:28;24.60;;;15.57;;
65370;SDS011;58485;59.934;30.352;2022-07-18T03:42:20;26.33;;;16.42;;
65370;SDS011;58485;59.934;30.352;2022-07-18T03:43:11;19.15;;;13.98;;
65370;SDS011;58485;59.934;30.352;2022-07-18T03:44:04;20.55;;;14.30;;
65370;SDS011;58485;59.934;30.352;2022-07-18T03:44:56;20.90;;;15.23;;
65370;SDS011;58485;59.934;30.352;2022-07-18T03:45:48;18.90;;;13.43;;
65370;SDS011;58485;59.934;30.352;2022-07-18T03:46:39;19.65;;;14.25;;
65370;SDS011;58485;59.934;30.352;2022-07-18T03:47:31;15.18;;;12.75;;
65370;SDS011;58485;59.934;30.352;2022-07-18T03:48:22;21.83;;;13.93;;
65370;SDS011;58485;59.934;30.352;2022-07-18T03:49:15;13.98;;;12.32;;
65370;SDS011;58485;59.934;30.352;2022-07-18T03:50:07;20.80;;;12.25;;
65370;SDS011;58485;59.934;30.352;2022-07-18T03:51:00;16.85;;;12.38;;
65370;SDS011;58485;59.934;30.352;2022-07-18T03:51:53;12.77;;;11.05;;
65370;SDS011;58485;59.934;30.352;2022-07-18T03:52:46;19.85;;;12.65;;
65370;SDS011;58485;59.934;30.352;2022-07-18T03:53:37;12.98;;;11.05;;
65370;SDS011;58485;59.934;30.352;2022-07-18T03:54:29;17.38;;;11.75;;
65370;SDS011;58485;59.934;30.352;2022-07-18T03:55:20;13.15;;;10.48;;
65370;SDS011;58485;59.934;30.352;2022-07-18T03:56:14;16.55;;;10.75;;
65370;SDS011;58485;59.934;30.352;2022-07-18T03:57:06;12.52;;;10.25;;
65370;SDS011;58485;59.934;30.352;2022-07-18T03:57:58;12.23;;;10.75;;
65370;SDS011;58485;59.934;30.352;2022-07-18T03:58:49;12.05;;;9.45;;
65370;SDS011;58485;59.934;30.352;2022-07-18T03:59:42;15.35;;;9.35;;
65370;SDS011;58485;59.934;30.352;2022-07-18T04:00:33;10.98;;;9.88;;
65370;SDS011;58485;59.934;30.352;2022-07-18T04:01:25;10.50;;;9.38;;
65370;SDS011;58485;59.934;30.352;2022-07-18T04:02:17;14.02;;;9.50;;
65370;SDS011;58485;59.934;30.352;2022-07-18T04:03:09;10.55;;;8.90;;
65370;SDS011;58485;59.934;30.352;2022-07-18T04:04:00;8.95;;;8.05;;
65370;SDS011;58485;59.934;30.352;2022-07-18T04:04:52;9.90;;;7.82;;
65370;SDS011;58485;59.934;30.352;2022-07-18T04:05:43;10.73;;;8.98;;
65370;SDS011;58485;59.934;30.352;2022-07-18T04:06:36;9.60;;;8.05;;
65370;SDS011;58485;59.934;30.352;2022-07-18T04:07:27;12.77;;;8.15;;
65370;SDS011;58485;59.934;30.352;2022-07-18T04:08:19;9.88;;;8.20;;
65370;SDS011;58485;59.934;30.352;2022-07-18T04:09:11;10.10;;;7.15;;
65370;SDS011;58485;59.934;30.352;2022-07-18T04:10:03;8.80;;;8.00;;
65370;SDS011;58485;59.934;30.352;2022-07-18T04:10:57;13.60;;;7.43;;
65370;SDS011;58485;59.934;30.352;2022-07-18T04:11:50;9.75;;;7.10;;
65370;SDS011;58485;59.934;30.352;2022-07-18T04:12:45;7.00;;;6.40;;
65370;SDS011;58485;59.934;30.352;2022-07-18T04:13:38;7.70;;;6.10;;
65370;SDS011;58485;59.934;30.352;2022-07-18T04:14:30;10.30;;;6.60;;
65370;SDS011;58485;59.934;30.352;2022-07-18T04:15:23;6.63;;;6.03;;
65370;SDS011;58485;59.934;30.352;2022-07-18T04:16:16;6.97;;;6.38;;
65370;SDS011;58485;59.934;30.352;2022-07-18T04:17:08;6.43;;;5.82;;
65370;SDS011;58485;59.934;30.352;2022-07-18T04:17:59;7.85;;;5.60;;
65370;SDS011;58485;59.934;30.352;2022-07-18T04:18:51;6.20;;;5.70;;
65370;SDS011;58485;59.934;30.352;2022-07-18T04:19:43;6.43;;;5.82;;
65370;SDS011;58485;59.934;30.352;2022-07-18T04:20:35;7.20;;;5.57;;
65370;SDS011;58485;59.934;30.352;2022-07-18T04:21:29;5.28;;;4.80;;
65370;SDS011;58485;59.934;30.352;2022-07-18T04:22:21;5.15;;;4.72;;
65370;SDS011;58485;59.934;30.352;2022-07-18T04:23:12;6.55;;;5.15;;
65370;SDS011;58485;59.934;30.352;2022-07-18T04:24:05;5.60;;;5.00;;
65370;SDS011;58485;59.934;30.352;2022-07-18T04:24:56;5.45;;;4.95;;
65370;SDS011;58485;59.934;30.352;2022-07-18T04:25:48;4.72;;;4.32;;
65370;SDS011;58485;59.934;30.352;2022-07-18T04:26:40;4.93;;;4.43;;
65370;SDS011;58485;59.934;30.352;2022-07-18T04:27:33;6.45;;;4.82;;
65370;SDS011;58485;59.934;30.352;2022-07-18T04:28:25;4.03;;;3.60;;
65370;SDS011;58485;59.934;30.352;2022-07-18T04:29:17;4.70;;;4.30;;
65370;SDS011;58485;59.934;30.352;2022-07-18T04:30:08;4.28;;;3.88;;
65370;SDS011;58485;59.934;30.352;2022-07-18T04:31:02;4.68;;;4.25;;
65370;SDS011;58485;59.934;30.352;2022-07-18T04:31:53;5.38;;;3.95;;
65370;SDS011;58485;59.934;30.352;2022-07-18T04:32:45;4.30;;;3.90;;
65370;SDS011;58485;59.934;30.352;2022-07-18T04:33:37;4.20;;;3.83;;
65370;SDS011;58485;59.934;30.352;2022-07-18T04:34:29;6.03;;;3.53;;
65370;SDS011;58485;59.934;30.352;2022-07-18T04:35:21;7.10;;;3.65;;
65370;SDS011;58485;59.934;30.352;2022-07-18T04:36:14;4.20;;;3.58;;
65370;SDS011;58485;59.934;30.352;2022-07-18T04:37:05;4.07;;;3.67;;
65370;SDS011;58485;59.934;30.352;2022-07-18T04:37:57;3.72;;;3.42;;
65370;SDS011;58485;59.934;30.352;2022-07-18T04:38:48;4.07;;;3.67;;
65370;SDS011;58485;59.934;30.352;2022-07-18T04:39:41;3.20;;;3.00;;
65370;SDS011;58485;59.934;30.352;2022-07-18T04:40:32;4.05;;;3.63;;
65370;SDS011;58485;59.934;30.352;2022-07-18T04:41:24;3.45;;;3.15;;
65370;SDS011;58485;59.934;30.352;2022-07-18T04:42:15;3.60;;;3.15;;
65370;SDS011;58485;59.934;30.352;2022-07-18T04:43:08;3.63;;;3.33;;
65370;SDS011;58485;59.934;30.352;2022-07-18T04:44:00;3.03;;;2.75;;
65370;SDS011;58485;59.934;30.352;2022-07-18T04:44:52;4.63;;;2.55;;
65370;SDS011;58485;59.934;30.352;2022-07-18T04:45:44;2.92;;;2.60;;
65370;SDS011;58485;59.934;30.352;2022-07-18T04:46:35;2.72;;;2.53;;
65370;SDS011;58485;59.934;30.352;2022-07-18T04:47:28;3.22;;;2.70;;
65370;SDS011;58485;59.934;30.352;2022-07-18T04:48:19;2.75;;;2.50;;
65370;SDS011;58485;59.934;30.352;2022-07-18T04:49:11;3.40;;;3.10;;
65370;SDS011;58485;59.934;30.352;2022-07-18T04:50:03;3.15;;;2.85;;
65370;SDS011;58485;59.934;30.352;2022-07-18T04:50:56;2.60;;;2.40;;
65370;SDS011;58485;59.934;30.352;2022-07-18T04:51:47;2.45;;;2.25;;
65370;SDS011;58485;59.934;30.352;2022-07-18T04:52:40;2.45;;;2.25;;
65370;SDS011;58485;59.934;30.352;2022-07-18T04:53:33;2.65;;;1.90;;
65370;SDS011;58485;59.934;30.352;2022-07-18T04:54:25;3.40;;;2.10;;
65370;SDS011;58485;59.934;30.352;2022-07-18T04:55:17;2.55;;;2.03;;
65370;SDS011;58485;59.934;30.352;2022-07-18T04:56:12;2.35;;;2.15;;
65370;SDS011;58485;59.934;30.352;2022-07-18T04:57:03;2.80;;;2.60;;
65370;SDS011;58485;59.934;30.352;2022-07-18T04:57:56;2.30;;;1.92;;
65370;SDS011;58485;59.934;30.352;2022-07-18T04:58:48;2.17;;;1.80;;
65370;SDS011;58485;59.934;30.352;2022-07-18T04:59:41;3.75;;;2.17;;
65370;SDS011;58485;59.934;30.352;2022-07-18T05:00:33;1.83;;;1.73;;
65370;SDS011;58485;59.934;30.352;2022-07-18T05:01:25;2.15;;;1.70;;
65370;SDS011;58485;59.934;30.352;2022-07-18T05:02:16;1.88;;;1.67;;
65370;SDS011;58485;59.934;30.352;2022-07-18T05:03:08;1.60;;;1.50;;